Time;durP1;ratioP1;P1;durP2;ratioP2;P2;SDS_P1;SDS_P2;PMS_P1;PMS_P2;Temp;Humidity;BMP_temperature;BMP_pressure;BME280_temperature;BME280_humidity;BME280_pressure;Samples;Min_cycle;Max_cycle;Signal;HPM_P1;HPM_P2
2021/09/04 00:00:43;;;;;;;11.00;8.25;;;20.30;70.50;;;;;;4940685;28;20039;-76
2021/09/04 00:03:09;;;;;;;9.77;7.88;;;20.30;70.90;;;;;;4957210;28;20055;-76
2021/09/04 00:05:35;;;;;;;9.35;8.38;;;20.30;70.70;;;;;;4957381;28;20091;-76
2021/09/04 00:08:01;;;;;;;10.95;8.35;;;20.20;71.10;;;;;;4939436;28;20503;-76
2021/09/04 00:10:27;;;;;;;10.35;8.02;;;20.20;71.10;;;;;;4937980;29;20044;-76
2021/09/04 00:12:53;;;;;;;11.00;9.10;;;20.10;71.20;;;;;;4938617;29;20381;-76
2021/09/04 00:15:19;;;;;;;9.82;8.10;;;20.00;71.40;;;;;;4938210;29;20031;-76
2021/09/04 00:17:44;;;;;;;10.25;8.68;;;20.10;71.30;;;;;;4938084;29;20480;-75
2021/09/04 00:20:11;;;;;;;10.75;8.27;;;20.10;71.10;;;;;;4942117;29;20111;-76
2021/09/04 00:22:37;;;;;;;9.77;8.60;;;20.00;71.50;;;;;;4942380;29;20115;-76
2021/09/04 00:25:03;;;;;;;10.00;8.88;;;20.10;71.40;;;;;;4942082;29;20035;-76
2021/09/04 00:27:29;;;;;;;9.77;8.75;;;20.00;71.70;;;;;;4941779;29;20042;-76
2021/09/04 00:29:54;;;;;;;9.57;7.95;;;20.00;71.40;;;;;;4942219;29;20497;-76
2021/09/04 00:32:20;;;;;;;10.43;9.18;;;19.90;71.60;;;;;;4941671;29;20043;-76
2021/09/04 00:34:46;;;;;;;10.18;9.18;;;19.80;71.70;;;;;;4942168;29;20024;-76
2021/09/04 00:37:11;;;;;;;11.70;9.02;;;19.80;72.00;;;;;;4941971;29;20031;-76
2021/09/04 00:39:37;;;;;;;9.75;8.60;;;19.80;72.50;;;;;;4956672;28;20087;-76
2021/09/04 00:42:03;;;;;;;11.88;9.65;;;19.80;72.30;;;;;;4950255;29;20115;-76
2021/09/04 00:44:29;;;;;;;11.93;9.63;;;19.80;72.00;;;;;;4941774;29;20024;-76
2021/09/04 00:47:05;;;;;;;10.43;9.05;;;19.80;72.10;;;;;;4941537;29;20090;-76
2021/09/04 00:49:34;;;;;;;10.57;9.38;;;19.80;72.20;;;;;;4955945;28;20082;-76
2021/09/04 00:52:00;;;;;;;29.88;11.40;;;19.70;72.40;;;;;;4941508;29;20070;-75
2021/09/04 00:54:25;;;;;;;10.88;9.80;;;19.70;72.20;;;;;;4941710;29;20533;-76
2021/09/04 00:56:52;;;;;;;11.48;9.13;;;19.80;71.90;;;;;;4941651;29;20116;-76
2021/09/04 00:59:18;;;;;;;11.75;9.73;;;19.80;71.80;;;;;;4941217;29;20024;-75
2021/09/04 01:01:44;;;;;;;10.68;9.43;;;19.70;71.90;;;;;;4940559;29;20031;-76
2021/09/04 01:04:10;;;;;;;11.10;9.65;;;19.60;72.60;;;;;;4941455;29;20035;-75
2021/09/04 01:06:36;;;;;;;10.95;9.15;;;19.50;73.10;;;;;;4941553;29;20063;-76
2021/09/04 01:09:05;;;;;;;11.15;10.00;;;19.50;73.00;;;;;;4940966;29;20043;-75
2021/09/04 01:11:31;;;;;;;12.15;9.45;;;19.50;72.80;;;;;;4941234;29;20032;-76
2021/09/04 01:13:57;;;;;;;11.13;9.93;;;19.50;73.20;;;;;;4955795;28;20024;-76
2021/09/04 01:16:33;;;;;;;11.80;10.60;;;19.40;73.30;;;;;;4955936;28;20459;-76
2021/09/04 01:18:59;;;;;;;12.85;9.55;;;19.50;73.20;;;;;;4939555;29;20032;-76
2021/09/04 01:21:24;;;;;;;14.23;10.45;;;19.30;73.40;;;;;;4940982;29;20027;-76
2021/09/04 01:23:50;;;;;;;12.02;10.23;;;19.30;73.60;;;;;;4940911;29;20027;-76
2021/09/04 01:26:15;;;;;;;12.25;10.40;;;19.30;73.60;;;;;;4948145;29;20036;-75
2021/09/04 01:28:41;;;;;;;11.70;9.82;;;19.30;73.60;;;;;;4941015;29;20820;-76
2021/09/04 01:31:07;;;;;;;12.85;10.95;;;19.40;73.20;;;;;;4938243;29;20031;-76
2021/09/04 01:33:40;;;;;;;12.48;10.10;;;19.40;73.30;;;;;;4940611;29;20016;-76
2021/09/04 01:36:05;;;;;;;12.15;10.63;;;19.30;73.20;;;;;;4940706;29;20103;-76
2021/09/04 01:38:31;;;;;;;14.32;9.60;;;19.40;72.90;;;;;;4941081;29;20059;-76
2021/09/04 01:40:57;;;;;;;12.02;10.60;;;19.40;72.70;;;;;;4948969;29;20046;-75
2021/09/04 01:43:22;;;;;;;12.73;10.40;;;19.30;73.40;;;;;;4958521;29;20407;-75
2021/09/04 01:45:48;;;;;;;11.20;9.77;;;19.20;73.20;;;;;;4958857;28;20475;-76
2021/09/04 01:48:14;;;;;;;14.18;10.23;;;19.30;73.30;;;;;;4940388;29;20026;-76
2021/09/04 01:50:40;;;;;;;11.70;10.35;;;19.30;72.80;;;;;;4955171;28;20106;-76
2021/09/04 01:53:05;;;;;;;12.77;10.80;;;19.30;72.70;;;;;;4940536;29;20024;-76
2021/09/04 01:55:31;;;;;;;11.55;10.20;;;19.30;72.60;;;;;;4939048;29;20043;-76
2021/09/04 01:57:57;;;;;;;11.80;9.68;;;19.30;72.70;;;;;;4940600;29;20023;-76
2021/09/04 02:00:25;;;;;;;11.43;10.23;;;19.30;72.80;;;;;;4940544;29;20084;-76
2021/09/04 02:02:50;;;;;;;11.43;10.13;;;19.30;72.50;;;;;;4938979;29;20031;-76
2021/09/04 02:05:16;;;;;;;12.32;9.93;;;19.30;72.60;;;;;;4939042;29;20130;-76
2021/09/04 02:07:42;;;;;;;12.18;9.75;;;19.30;72.40;;;;;;4940225;29;20034;-76
2021/09/04 02:10:09;;;;;;;13.80;10.40;;;19.20;72.60;;;;;;4940237;29;20059;-76
2021/09/04 02:12:35;;;;;;;11.77;10.38;;;19.20;72.60;;;;;;4940372;29;20617;-76
2021/09/04 02:15:01;;;;;;;11.98;10.52;;;19.30;72.50;;;;;;4938746;29;20023;-76
2021/09/04 02:17:29;;;;;;;11.18;9.70;;;19.20;72.50;;;;;;4939932;29;20030;-76
2021/09/04 02:19:55;;;;;;;11.73;9.45;;;19.20;72.50;;;;;;4938331;29;20815;-76
2021/09/04 02:22:20;;;;;;;10.82;9.73;;;19.20;72.40;;;;;;4939012;29;20028;-75
2021/09/04 02:24:46;;;;;;;12.45;10.32;;;19.10;72.70;;;;;;4938734;29;20099;-76
2021/09/04 02:27:12;;;;;;;10.93;9.80;;;19.10;72.60;;;;;;4954423;28;20492;-76
2021/09/04 02:29:38;;;;;;;12.48;9.77;;;19.10;72.70;;;;;;4938279;29;20436;-76
2021/09/04 02:32:03;;;;;;;11.68;9.52;;;19.00;72.50;;;;;;4939815;29;20039;-76
2021/09/04 02:34:29;;;;;;;12.50;10.15;;;19.00;72.60;;;;;;4938334;29;20032;-75
2021/09/04 02:36:55;;;;;;;11.63;9.93;;;18.90;73.10;;;;;;4939573;29;20035;-76
2021/09/04 02:39:20;;;;;;;12.15;9.68;;;18.90;73.30;;;;;;4954427;28;20095;-76
2021/09/04 02:41:46;;;;;;;13.38;10.05;;;18.90;72.90;;;;;;4953080;28;20035;-76
2021/09/04 02:44:12;;;;;;;12.38;9.98;;;18.90;73.20;;;;;;4958669;28;20031;-76
2021/09/04 02:46:37;;;;;;;11.95;10.38;;;18.80;73.20;;;;;;4949603;28;20031;-75
2021/09/04 02:49:03;;;;;;;11.90;10.00;;;18.80;73.50;;;;;;4939287;29;20567;-76
2021/09/04 02:51:29;;;;;;;11.98;9.95;;;18.80;73.40;;;;;;4938352;29;20028;-76
2021/09/04 02:53:54;;;;;;;13.38;11.68;;;18.80;73.50;;;;;;4939719;29;20481;-76
2021/09/04 02:56:20;;;;;;;12.95;11.05;;;18.80;73.60;;;;;;4938121;29;20027;-75
2021/09/04 02:58:46;;;;;;;13.57;11.45;;;18.80;73.70;;;;;;4939306;29;20111;-75
2021/09/04 03:01:11;;;;;;;12.18;10.90;;;18.80;73.60;;;;;;4938113;29;20038;-76
2021/09/04 03:03:37;;;;;;;13.45;11.20;;;18.80;73.80;;;;;;4937765;29;20091;-76
2021/09/04 03:06:03;;;;;;;12.45;11.15;;;18.70;74.40;;;;;;4939121;29;20020;-76
2021/09/04 03:08:32;;;;;;;12.80;10.98;;;18.70;74.30;;;;;;4939243;29;20114;-76
2021/09/04 03:10:57;;;;;;;12.60;10.88;;;18.60;74.60;;;;;;4938913;29;20074;-76
2021/09/04 03:13:23;;;;;;;13.05;11.25;;;18.60;75.00;;;;;;4939261;29;20069;-76
2021/09/04 03:15:49;;;;;;;13.32;11.93;;;18.60;74.80;;;;;;4938900;29;20480;-75
2021/09/04 03:18:15;;;;;;;12.77;11.25;;;18.60;75.10;;;;;;4953696;28;20035;-76
2021/09/04 03:20:41;;;;;;;15.05;12.25;;;18.60;75.30;;;;;;4938878;29;20119;-75
2021/09/04 03:23:06;;;;;;;14.02;12.05;;;18.60;75.10;;;;;;4938949;29;20146;-76
2021/09/04 03:25:34;;;;;;;14.43;11.38;;;18.60;75.20;;;;;;4938588;29;20109;-76
2021/09/04 03:28:00;;;;;;;14.10;11.18;;;18.60;75.40;;;;;;4938848;29;20028;-76
2021/09/04 03:30:26;;;;;;;12.05;10.75;;;18.50;75.70;;;;;;4939006;29;20434;-77
2021/09/04 03:32:51;;;;;;;14.05;11.15;;;18.50;75.50;;;;;;4938435;29;20090;-76
2021/09/04 03:35:17;;;;;;;13.48;11.50;;;18.60;75.20;;;;;;4938711;29;20026;-76
2021/09/04 03:37:43;;;;;;;13.63;10.57;;;18.60;74.80;;;;;;4938364;29;20407;-77
2021/09/04 03:40:09;;;;;;;13.05;10.38;;;18.60;74.60;;;;;;4940536;29;20031;-76
2021/09/04 03:42:37;;;;;;;11.27;10.07;;;18.60;74.40;;;;;;4957674;28;20023;-76
2021/09/04 03:45:03;;;;;;;13.10;10.68;;;18.60;74.50;;;;;;4954542;28;20020;-76
2021/09/04 03:47:30;;;;;;;14.65;11.20;;;18.70;74.40;;;;;;4938331;29;20492;-76
2021/09/04 03:49:55;;;;;;;13.27;10.50;;;18.70;74.50;;;;;;4938451;29;20020;-76
2021/09/04 03:52:21;;;;;;;13.40;10.52;;;18.70;74.30;;;;;;4937840;29;20035;-77
2021/09/04 03:54:47;;;;;;;12.82;10.85;;;18.70;74.30;;;;;;4938333;29;20030;-76
2021/09/04 03:57:12;;;;;;;13.68;10.48;;;18.60;74.30;;;;;;4953041;28;20099;-76
2021/09/04 03:59:38;;;;;;;12.52;9.80;;;18.60;74.20;;;;;;4938265;29;20341;-76
2021/09/04 04:02:04;;;;;;;12.60;10.30;;;18.60;74.40;;;;;;4952852;28;20546;-76
2021/09/04 04:04:29;;;;;;;13.38;10.07;;;18.60;74.20;;;;;;4938130;29;20407;-76
2021/09/04 04:06:55;;;;;;;12.32;10.70;;;18.60;74.20;;;;;;4936970;29;20046;-76
2021/09/04 04:09:21;;;;;;;11.93;10.63;;;18.50;74.20;;;;;;4952663;28;20043;-76
2021/09/04 04:11:46;;;;;;;13.18;9.88;;;18.50;74.10;;;;;;4937202;29;20067;-76
2021/09/04 04:14:12;;;;;;;13.98;10.85;;;18.50;74.20;;;;;;4938035;29;20039;-76
2021/09/04 04:16:57;;;;;;;13.05;10.50;;;18.50;74.10;;;;;;4938182;29;20043;-76
2021/09/04 04:19:23;;;;;;;12.95;11.23;;;18.40;74.30;;;;;;4953104;28;20027;-76
2021/09/04 04:21:49;;;;;;;13.30;11.18;;;18.40;74.20;;;;;;4938009;29;20934;-76
2021/09/04 04:24:14;;;;;;;13.73;11.25;;;18.30;74.30;;;;;;4938010;29;20032;-75
2021/09/04 04:26:40;;;;;;;11.75;9.68;;;18.30;74.50;;;;;;4936916;29;20032;-75
2021/09/04 04:29:06;;;;;;;11.95;10.60;;;18.30;74.20;;;;;;4952721;29;20055;-76
2021/09/04 04:31:33;;;;;;;13.18;10.57;;;18.30;74.70;;;;;;4938031;29;20415;-76
2021/09/04 04:33:59;;;;;;;10.85;9.65;;;18.30;74.50;;;;;;4952805;28;20519;-76
2021/09/04 04:36:25;;;;;;;13.10;10.00;;;18.20;74.70;;;;;;4936613;29;20031;-76
2021/09/04 04:38:50;;;;;;;12.98;10.35;;;18.20;75.20;;;;;;4936551;29;20070;-76
2021/09/04 04:41:16;;;;;;;11.45;10.30;;;18.10;75.30;;;;;;4954819;28;20035;-76
2021/09/04 04:43:42;;;;;;;11.25;10.05;;;18.00;75.80;;;;;;4956943;28;20023;-76
2021/09/04 04:46:07;;;;;;;13.05;9.90;;;18.10;75.40;;;;;;4957027;28;20031;-76
2021/09/04 04:48:33;;;;;;;13.35;10.40;;;18.20;75.20;;;;;;4955855;28;20395;-76
2021/09/04 04:51:02;;;;;;;15.60;10.35;;;18.20;75.20;;;;;;4937829;29;20032;-76
2021/09/04 04:53:28;;;;;;;13.00;11.18;;;18.20;75.10;;;;;;4938040;29;20649;-76
2021/09/04 04:55:53;;;;;;;13.07;10.88;;;18.20;75.20;;;;;;4937766;29;20036;-76
2021/09/04 04:58:19;;;;;;;11.57;9.85;;;18.20;75.10;;;;;;4937681;29;20036;-76
2021/09/04 05:00:45;;;;;;;12.40;10.38;;;18.20;75.00;;;;;;4952124;28;20058;-76
2021/09/04 05:03:10;;;;;;;13.30;10.75;;;18.20;74.80;;;;;;4937596;29;20599;-76
2021/09/04 05:05:36;;;;;;;11.50;10.00;;;18.30;74.90;;;;;;4939614;29;20039;-76
2021/09/04 05:08:03;;;;;;;12.38;10.57;;;18.20;74.90;;;;;;4955498;28;20071;-76
2021/09/04 05:10:29;;;;;;;12.48;10.98;;;18.10;75.20;;;;;;4939729;29;20036;-76
2021/09/04 05:12:54;;;;;;;11.75;9.85;;;17.90;75.80;;;;;;4939836;29;20032;-76
2021/09/04 05:15:20;;;;;;;13.93;11.27;;;18.00;75.40;;;;;;4940032;29;20028;-76
2021/09/04 05:17:46;;;;;;;13.90;10.25;;;18.00;75.60;;;;;;4941042;29;20031;-76
2021/09/04 05:20:12;;;;;;;13.05;10.82;;;18.00;75.60;;;;;;4940943;29;20034;-76
2021/09/04 05:22:40;;;;;;;14.43;9.85;;;18.00;75.50;;;;;;4940890;29;20047;-76
2021/09/04 05:25:08;;;;;;;13.02;10.73;;;18.00;75.50;;;;;;4959710;28;20019;-76
2021/09/04 05:27:34;;;;;;;13.57;10.68;;;18.00;75.30;;;;;;4958858;28;20030;-76
2021/09/04 05:29:59;;;;;;;11.38;10.20;;;18.10;75.00;;;;;;4956246;28;20392;-76
2021/09/04 05:32:25;;;;;;;13.27;11.07;;;18.00;74.90;;;;;;4940843;29;20043;-75
2021/09/04 05:34:51;;;;;;;12.95;10.60;;;18.00;75.00;;;;;;4955631;28;20027;-82
2021/09/04 05:37:18;;;;;;;11.63;9.68;;;18.00;75.30;;;;;;4955469;28;20057;-78
2021/09/04 05:39:44;;;;;;;14.82;10.77;;;17.90;75.20;;;;;;4940811;29;20025;-80
2021/09/04 05:42:10;;;;;;;13.77;10.05;;;18.00;75.10;;;;;;4954162;29;20028;-81
2021/09/04 05:44:36;;;;;;;12.35;10.50;;;18.00;75.40;;;;;;4940551;29;20039;-77
2021/09/04 05:47:02;;;;;;;14.52;10.38;;;17.90;75.30;;;;;;4940759;29;20119;-76
2021/09/04 05:49:27;;;;;;;16.13;11.52;;;18.00;75.20;;;;;;4940351;29;20027;-78
2021/09/04 05:51:53;;;;;;;15.70;11.38;;;18.00;75.00;;;;;;4940373;29;20487;-82
2021/09/04 05:54:18;;;;;;;13.85;10.45;;;18.00;75.10;;;;;;4940297;29;20114;-79
2021/09/04 05:56:44;;;;;;;12.20;10.52;;;18.00;75.20;;;;;;4940376;29;20016;-78
2021/09/04 05:59:10;;;;;;;12.27;10.18;;;18.10;75.00;;;;;;4940323;29;20024;-78
2021/09/04 06:01:36;;;;;;;12.32;11.00;;;18.00;74.90;;;;;;4940129;29;20111;-79
2021/09/04 06:04:01;;;;;;;12.13;10.40;;;18.00;75.20;;;;;;4936955;28;20028;-80
2021/09/04 06:06:27;;;;;;;11.60;10.13;;;17.90;75.60;;;;;;4934712;29;20067;-81
2021/09/04 06:08:53;;;;;;;12.05;10.75;;;18.00;75.60;;;;;;4939739;29;20035;-79
2021/09/04 06:11:18;;;;;;;14.32;11.18;;;18.00;75.70;;;;;;4942430;29;20757;-79
2021/09/04 06:13:44;;;;;;;11.95;10.32;;;17.90;75.80;;;;;;4942368;29;20028;-81
2021/09/04 06:16:10;;;;;;;12.30;10.50;;;17.80;76.10;;;;;;4954792;28;20126;-77
2021/09/04 06:18:35;;;;;;;15.35;10.77;;;17.90;76.30;;;;;;4959013;28;20403;-80
2021/09/04 06:21:01;;;;;;;13.30;10.60;;;17.80;76.30;;;;;;4954292;28;20941;-82
2021/09/04 06:23:27;;;;;;;14.10;11.70;;;17.90;76.20;;;;;;4954164;29;20455;-77
2021/09/04 06:25:53;;;;;;;11.45;10.23;;;17.90;75.80;;;;;;4956387;29;20031;-82
2021/09/04 06:28:18;;;;;;;13.50;10.90;;;17.90;75.90;;;;;;4956120;28;20050;-83
2021/09/04 06:30:44;;;;;;;14.95;11.23;;;18.00;75.70;;;;;;4956723;28;20038;-84
2021/09/04 06:33:09;;;;;;;12.77;10.57;;;18.00;75.40;;;;;;4957917;28;20446;-80
2021/09/04 06:35:36;;;;;;;14.48;11.05;;;18.10;75.10;;;;;;4949924;28;20488;-82
2021/09/04 06:38:02;;;;;;;13.35;11.23;;;18.20;75.10;;;;;;4957608;29;20023;-84
2021/09/04 06:40:28;;;;;;;11.52;10.32;;;18.20;75.10;;;;;;4957886;28;20122;-84
2021/09/04 06:42:54;;;;;;;13.90;11.63;;;18.20;75.20;;;;;;4957515;28;20360;-89
2021/09/04 06:45:19;;;;;;;14.27;11.13;;;18.30;74.90;;;;;;4951126;28;20035;-89
2021/09/04 06:47:45;;;;;;;14.52;11.38;;;18.30;74.90;;;;;;4948644;28;20035;-81
2021/09/04 06:50:11;;;;;;;13.70;10.55;;;18.20;75.00;;;;;;4945347;28;20115;-81
2021/09/04 06:52:37;;;;;;;14.18;11.32;;;18.30;74.90;;;;;;4939476;29;20024;-84
2021/09/04 06:55:02;;;;;;;11.32;10.15;;;18.30;74.70;;;;;;4938258;29;20020;-77
2021/09/04 06:57:28;;;;;;;12.77;11.00;;;18.40;74.40;;;;;;4943239;29;20032;-81
2021/09/04 06:59:54;;;;;;;15.48;11.05;;;18.40;74.70;;;;;;4962171;28;20043;-81
2021/09/04 07:02:19;;;;;;;14.20;11.35;;;18.50;74.30;;;;;;4954310;29;20039;-81
2021/09/04 07:04:45;;;;;;;13.57;11.50;;;18.60;74.00;;;;;;4951762;28;20027;-82
2021/09/04 07:07:11;;;;;;;12.63;10.75;;;18.60;74.00;;;;;;4937604;29;20028;-81
2021/09/04 07:09:38;;;;;;;12.85;11.07;;;18.60;74.00;;;;;;4937074;29;20226;-84
2021/09/04 07:12:04;;;;;;;12.73;11.27;;;18.60;74.30;;;;;;4952795;28;20087;-88
2021/09/04 07:14:29;;;;;;;12.43;11.02;;;18.60;74.60;;;;;;4953983;28;20027;-90
2021/09/04 07:16:55;;;;;;;13.80;10.95;;;18.70;74.40;;;;;;4937797;29;20041;-80
2021/09/04 07:19:21;;;;;;;15.38;10.43;;;18.80;74.30;;;;;;4938821;29;20087;-80
2021/09/04 07:21:46;;;;;;;12.45;10.82;;;18.80;74.10;;;;;;4938732;29;20032;-79
2021/09/04 07:24:12;;;;;;;14.43;12.32;;;18.80;74.10;;;;;;4941285;29;20499;-79
2021/09/04 07:26:38;;;;;;;14.23;11.35;;;18.90;73.90;;;;;;4957539;28;20487;-80
2021/09/04 07:29:03;;;;;;;13.60;11.52;;;19.00;73.90;;;;;;4953538;28;20763;-80
2021/09/04 07:31:29;;;;;;;15.38;11.85;;;19.00;73.80;;;;;;4951507;29;20109;-90
2021/09/04 07:33:55;;;;;;;12.48;11.00;;;19.20;73.70;;;;;;4949841;28;20028;-79
2021/09/04 07:36:21;;;;;;;16.17;11.55;;;19.30;73.20;;;;;;4953617;29;20035;-81
2021/09/04 07:38:46;;;;;;;12.48;10.90;;;19.90;72.20;;;;;;4958146;28;20027;-79
2021/09/04 07:41:12;;;;;;;12.15;10.60;;;20.30;70.30;;;;;;4967560;28;20395;-78
2021/09/04 07:43:38;;;;;;;13.43;9.90;;;21.20;68.40;;;;;;4948585;28;20082;-78
2021/09/04 07:46:03;;;;;;;13.23;11.05;;;21.70;66.90;;;;;;4941419;29;20031;-78
2021/09/04 07:48:29;;;;;;;12.63;9.65;;;21.70;65.90;;;;;;4947070;29;20055;-77
2021/09/04 07:50:55;;;;;;;14.05;10.75;;;21.50;66.60;;;;;;4957759;28;20391;-80
2021/09/04 07:53:21;;;;;;;12.43;10.35;;;21.50;66.90;;;;;;4950227;28;20446;-79
2021/09/04 07:55:48;;;;;;;11.48;9.82;;;21.50;67.00;;;;;;4949374;28;20027;-78
2021/09/04 07:58:14;;;;;;;10.15;9.07;;;21.60;66.80;;;;;;4951476;28;20042;-79
2021/09/04 08:00:40;;;;;;;11.77;10.10;;;24.00;61.30;;;;;;4947766;28;20511;-78
2021/09/04 08:03:06;;;;;;;10.85;9.70;;;23.80;60.30;;;;;;4947830;29;20031;-77
2021/09/04 08:05:32;;;;;;;11.18;10.07;;;23.30;61.20;;;;;;4947071;28;20036;-77
2021/09/04 08:07:57;;;;;;;12.13;10.02;;;23.20;61.50;;;;;;4949168;28;20122;-77
2021/09/04 08:10:23;;;;;;;11.38;9.93;;;23.20;61.80;;;;;;4947875;28;20050;-79
2021/09/04 08:12:49;;;;;;;9.80;8.32;;;25.60;57.10;;;;;;4957340;28;20462;-79
2021/09/04 08:15:14;;;;;;;10.00;8.98;;;27.90;51.10;;;;;;4948454;28;20046;-80
2021/09/04 08:17:40;;;;;;;8.68;7.60;;;29.60;47.60;;;;;;4958730;23;20059;-79
2021/09/04 08:20:07;;;;;;;9.65;8.70;;;29.80;45.80;;;;;;4967976;28;20035;-81
2021/09/04 08:22:33;;;;;;;9.73;8.82;;;29.90;45.80;;;;;;4974287;28;20523;-80
2021/09/04 08:24:58;;;;;;;9.32;8.32;;;29.00;47.00;;;;;;4972342;28;20061;-79
2021/09/04 08:27:24;;;;;;;10.23;9.23;;;29.00;47.00;;;;;;4966605;28;20023;-79
2021/09/04 08:29:50;;;;;;;10.48;9.27;;;28.20;48.00;;;;;;4975089;28;20058;-78
2021/09/04 08:32:15;;;;;;;9.10;8.27;;;27.10;50.90;;;;;;4974310;28;20019;-79
2021/09/04 08:34:42;;;;;;;10.05;9.00;;;26.60;52.20;;;;;;4972173;28;20027;-78
2021/09/04 08:37:08;;;;;;;10.65;9.57;;;25.70;54.60;;;;;;4975874;28;20058;-78
2021/09/04 08:39:33;;;;;;;11.23;9.52;;;25.10;56.20;;;;;;4975461;28;20046;-78
2021/09/04 08:41:59;;;;;;;12.68;9.35;;;24.70;57.90;;;;;;4980757;28;20383;-78
2021/09/04 08:44:25;;;;;;;11.50;10.38;;;24.30;59.20;;;;;;4979812;28;20033;-79
2021/09/04 08:46:51;;;;;;;11.73;10.63;;;24.20;59.90;;;;;;4980235;28;20110;-78
2021/09/04 08:49:18;;;;;;;11.65;10.48;;;24.00;60.50;;;;;;4970976;28;20034;-78
2021/09/04 08:51:45;;;;;;;11.30;10.18;;;23.80;61.10;;;;;;4974599;28;20047;-78
2021/09/04 08:54:10;;;;;;;15.25;11.57;;;23.70;61.70;;;;;;4969889;28;20561;-77
2021/09/04 08:56:36;;;;;;;12.32;10.98;;;23.50;62.40;;;;;;4968482;28;20043;-77
2021/09/04 08:59:02;;;;;;;14.95;11.27;;;23.40;62.70;;;;;;4970288;28;20118;-79
2021/09/04 09:01:29;;;;;;;12.95;10.70;;;23.40;63.20;;;;;;4973358;28;20050;-78
2021/09/04 09:04:01;;;;;;;11.18;9.77;;;23.40;63.30;;;;;;4978865;28;20031;-79
2021/09/04 09:06:35;;;;;;;13.95;10.90;;;23.50;62.80;;;;;;4975004;28;20593;-78
2021/09/04 09:09:22;;;;;;;11.82;10.43;;;23.70;62.40;;;;;;4975161;28;20031;-77
2021/09/04 09:11:53;;;;;;;14.48;11.25;;;23.80;62.30;;;;;;4972395;28;20023;-78
2021/09/04 09:14:20;;;;;;;11.13;9.65;;;24.00;61.90;;;;;;4979404;28;20037;-79
2021/09/04 09:16:58;;;;;;;14.77;10.43;;;24.20;61.60;;;;;;4974487;28;20027;-78
2021/09/04 09:19:39;;;;;;;12.65;10.10;;;24.50;60.10;;;;;;4970967;28;20035;-78
2021/09/04 09:22:41;;;;;;;10.82;9.30;;;24.70;60.70;;;;;;4976477;28;20398;-78
2021/09/04 09:25:15;;;;;;;11.05;9.65;;;25.10;59.30;;;;;;4976487;28;20065;-79
2021/09/04 09:28:15;;;;;;;11.90;10.43;;;25.40;58.40;;;;;;4979105;28;20053;-80
2021/09/04 09:30:46;;;;;;;10.85;9.40;;;25.40;58.70;;;;;;4971064;28;20051;-79
2021/09/04 09:33:14;;;;;;;10.48;9.38;;;25.50;58.20;;;;;;4959797;28;20032;-79
2021/09/04 09:35:41;;;;;;;11.48;9.48;;;25.50;58.40;;;;;;4959408;28;20110;-79
2021/09/04 09:38:09;;;;;;;10.45;9.27;;;25.50;58.90;;;;;;4959884;29;20044;-79
2021/09/04 09:40:36;;;;;;;11.52;9.93;;;25.50;58.30;;;;;;4965611;28;20081;-81
2021/09/04 09:43:10;;;;;;;11.73;9.90;;;25.40;58.90;;;;;;4988630;28;20047;-79
2021/09/04 09:45:48;;;;;;;11.88;9.93;;;26.10;57.40;;;;;;4966721;28;20031;-79
2021/09/04 09:48:19;;;;;;;12.50;9.98;;;26.10;57.50;;;;;;4971413;28;20039;-84
2021/09/04 09:50:46;;;;;;;11.30;9.48;;;26.00;57.10;;;;;;4974639;28;20113;-82
2021/09/04 09:53:11;;;;;;;11.60;10.23;;;26.10;57.90;;;;;;4974600;28;20094;-84
2021/09/04 09:55:42;;;;;;;10.73;9.45;;;26.20;57.50;;;;;;4978795;28;20070;-78
2021/09/04 09:58:10;;;;;;;11.15;9.65;;;26.20;57.40;;;;;;4978447;28;20082;-88
2021/09/04 10:00:35;;;;;;;11.65;10.35;;;26.10;57.40;;;;;;4988648;28;20119;-82
2021/09/04 10:03:05;;;;;;;11.40;9.18;;;26.10;56.70;;;;;;4966532;28;20054;-86
2021/09/04 10:05:30;;;;;;;11.80;9.23;;;26.20;56.90;;;;;;4965684;28;20604;-82
2021/09/04 10:07:58;;;;;;;11.05;9.90;;;26.20;57.50;;;;;;4973798;28;20074;-83
2021/09/04 10:10:32;;;;;;;11.43;10.23;;;26.40;57.20;;;;;;4975348;28;20022;-83
2021/09/04 10:12:58;;;;;;;11.50;9.95;;;26.30;58.00;;;;;;4975207;28;20031;-79
2021/09/04 10:15:31;;;;;;;10.68;9.48;;;26.30;58.90;;;;;;4974459;28;20026;-84
2021/09/04 10:17:59;;;;;;;11.15;9.93;;;26.30;59.30;;;;;;4970460;28;20573;-79
2021/09/04 10:20:28;;;;;;;10.18;9.15;;;26.30;59.70;;;;;;4976138;28;20027;-82
2021/09/04 10:23:14;;;;;;;11.30;9.15;;;26.00;59.40;;;;;;4972289;28;20019;-88
2021/09/04 10:25:39;;;;;;;10.05;8.70;;;26.00;60.60;;;;;;4977288;28;20042;-80
2021/09/04 10:28:08;;;;;;;10.50;9.40;;;26.10;59.30;;;;;;4975874;28;20023;-83
2021/09/04 10:30:38;;;;;;;13.95;9.68;;;26.00;59.10;;;;;;4976759;28;20023;-89
2021/09/04 10:33:10;;;;;;;11.02;8.85;;;26.00;58.60;;;;;;4974081;28;20505;-81
2021/09/04 10:35:46;;;;;;;9.95;8.10;;;26.00;59.90;;;;;;4966322;28;20027;-81
2021/09/04 10:38:18;;;;;;;10.50;8.63;;;26.10;59.30;;;;;;4958632;28;20102;-81
2021/09/04 10:40:48;;;;;;;10.02;7.43;;;26.10;59.00;;;;;;4984078;28;20456;-77
2021/09/04 10:43:15;;;;;;;9.77;7.50;;;26.20;58.60;;;;;;4997398;28;20050;-79
2021/09/04 10:45:51;;;;;;;7.55;6.85;;;26.30;58.70;;;;;;4982530;28;20057;-79
2021/09/04 10:48:19;;;;;;;8.63;6.40;;;26.30;57.60;;;;;;4958427;28;20038;-81
2021/09/04 10:51:09;;;;;;;7.40;6.28;;;26.30;56.80;;;;;;4958799;28;20050;-81
2021/09/04 10:53:51;;;;;;;6.13;5.53;;;26.30;55.60;;;;;;4957519;29;20031;-79
2021/09/04 10:56:22;;;;;;;6.05;5.45;;;26.30;56.30;;;;;;4958624;28;20067;-78
2021/09/04 10:58:49;;;;;;;6.80;6.03;;;26.30;55.40;;;;;;4958588;29;20038;-78
2021/09/04 11:01:25;;;;;;;6.15;5.55;;;26.30;54.70;;;;;;4957977;28;20035;-79
2021/09/04 11:03:56;;;;;;;6.43;5.70;;;26.30;55.90;;;;;;4957972;28;20024;-79
2021/09/04 11:06:23;;;;;;;7.13;6.05;;;26.40;55.90;;;;;;4957981;28;20121;-79
2021/09/04 11:08:51;;;;;;;6.75;5.78;;;26.50;55.80;;;;;;4958051;28;20090;-79
2021/09/04 11:11:24;;;;;;;6.57;5.63;;;26.50;57.20;;;;;;4958031;28;20082;-79
2021/09/04 11:13:58;;;;;;;7.80;5.55;;;26.60;56.10;;;;;;4974606;28;20028;-79
2021/09/04 11:16:30;;;;;;;6.25;5.55;;;26.80;55.30;;;;;;4958121;28;20027;-79
2021/09/04 11:19:03;;;;;;;6.93;5.15;;;26.80;55.20;;;;;;4972252;28;20051;-79
2021/09/04 11:21:31;;;;;;;7.35;6.30;;;26.80;54.50;;;;;;4957783;28;20114;-79
2021/09/04 11:23:57;;;;;;;5.38;4.40;;;26.80;54.30;;;;;;4957882;28;20027;-79
2021/09/04 11:26:22;;;;;;;5.63;4.75;;;26.80;54.80;;;;;;4957858;29;20035;-78
2021/09/04 11:29:01;;;;;;;4.90;4.30;;;26.80;54.50;;;;;;4972667;28;20061;-82
2021/09/04 11:31:27;;;;;;;6.40;4.95;;;26.80;54.50;;;;;;4958089;29;20031;-86
2021/09/04 11:33:58;;;;;;;5.95;5.05;;;26.90;54.20;;;;;;4956605;29;20114;-85
2021/09/04 11:36:37;;;;;;;5.68;5.07;;;26.90;53.30;;;;;;4958419;28;20054;-88
2021/09/04 11:39:03;;;;;;;4.95;4.45;;;27.00;52.80;;;;;;4956790;28;20027;-88
2021/09/04 11:41:29;;;;;;;5.97;4.47;;;27.10;53.00;;;;;;4979106;28;20126;-87
2021/09/04 11:43:54;;;;;;;8.07;5.15;;;27.20;53.40;;;;;;4996152;28;20763;-87
2021/09/04 11:46:22;;;;;;;5.00;4.50;;;27.20;51.70;;;;;;4965736;28;20035;-84
2021/09/04 11:48:48;;;;;;;6.13;5.00;;;27.20;52.40;;;;;;4965737;28;20024;-83
2021/09/04 11:51:14;;;;;;;5.22;4.72;;;27.30;52.30;;;;;;4967695;28;20027;-86
2021/09/04 11:53:39;;;;;;;4.50;4.10;;;27.30;53.70;;;;;;4963489;28;20027;-86
2021/09/04 11:56:17;;;;;;;4.00;3.60;;;27.40;52.70;;;;;;4960756;28;20023;-86
2021/09/04 11:59:04;;;;;;;4.53;4.13;;;27.50;52.60;;;;;;4962563;28;20038;-85
2021/09/04 12:01:30;;;;;;;6.45;4.10;;;27.50;51.70;;;;;;4966141;28;20038;-86
2021/09/04 12:03:56;;;;;;;4.55;4.03;;;27.60;51.30;;;;;;4966614;28;20055;-85
2021/09/04 12:06:22;;;;;;;4.55;4.15;;;27.50;49.80;;;;;;4962302;28;20062;-86
2021/09/04 12:08:48;;;;;;;5.07;4.10;;;27.50;51.30;;;;;;4965359;28;20144;-85
2021/09/04 12:11:14;;;;;;;4.93;4.07;;;27.60;53.30;;;;;;4963623;28;20493;-85
2021/09/04 12:13:40;;;;;;;5.57;4.32;;;27.70;53.10;;;;;;4966541;28;20125;-85
2021/09/04 12:16:08;;;;;;;5.20;3.78;;;27.70;51.10;;;;;;4968792;28;20030;-86
2021/09/04 12:18:46;;;;;;;4.38;3.97;;;27.80;51.20;;;;;;4955937;28;20051;-86
2021/09/04 12:21:26;;;;;;;5.15;4.03;;;27.80;50.10;;;;;;4970631;28;20731;-86
2021/09/04 12:23:58;;;;;;;3.67;3.35;;;27.90;50.30;;;;;;4959317;28;20066;-86
2021/09/04 12:26:24;;;;;;;4.43;3.63;;;27.90;50.60;;;;;;4965876;28;20039;-83
2021/09/04 12:29:03;;;;;;;3.83;3.42;;;27.90;50.00;;;;;;4971753;28;20478;-83
2021/09/04 12:31:29;;;;;;;;;;;28.00;50.70;;;;;;4973176;28;20035;-82
2021/09/04 12:33:57;;;;;;;3.72;3.30;;;28.00;49.00;;;;;;4969723;28;20672;-82